Time;durP1;ratioP1;P1;durP2;ratioP2;P2;SDS_P1;SDS_P2;PMS_P1;PMS_P2;Temp;Humidity;BMP_temperature;BMP_pressure;BME280_temperature;BME280_humidity;BME280_pressure;Samples;Min_cycle;Max_cycle;Signal;HPM_P1;HPM_P2
2021/12/31 00:00:31;;;;;;;1.27;1.17;;;;;;;;;;5045462;28;20179;-92
2021/12/31 00:02:57;;;;;;;1.70;1.07;;;;;;;;;;5050280;28;20171;-92
2021/12/31 00:05:24;;;;;;;1.00;1.00;;;;;;;;;;5051032;28;20199;-92
2021/12/31 00:07:51;;;;;;;2.47;1.00;;;11.90;99.90;;;;;;5027436;28;20215;-92
2021/12/31 00:10:18;;;;;;;1.27;1.20;;;;;;;;;;5045059;28;20619;-93
2021/12/31 00:12:44;;;;;;;1.13;1.10;;;;;;;;;;5048337;28;20197;-92
2021/12/31 00:15:12;;;;;;;1.20;1.10;;;11.90;99.90;;;;;;5049051;28;20171;-91
2021/12/31 00:17:39;;;;;;;1.37;1.27;;;;;;;;;;5049084;28;20178;-93
2021/12/31 00:20:11;;;;;;;1.40;1.30;;;11.90;99.90;;;;;;5059273;28;20183;-92
2021/12/31 00:23:02;;;;;;;1.00;1.00;;;11.90;99.90;;;;;;5053146;28;20188;-93
2021/12/31 00:25:28;;;;;;;1.97;1.07;;;;;;;;;;5049691;28;20293;-93
2021/12/31 00:27:55;;;;;;;1.40;1.30;;;;;;;;;;5051003;28;20186;-93
2021/12/31 00:30:21;;;;;;;1.03;1.03;;;;;;;;;;5050219;28;20178;-92
2021/12/31 00:32:48;;;;;;;2.00;1.17;;;;;;;;;;5047556;28;20183;-92
2021/12/31 00:35:14;;;;;;;1.57;1.30;;;12.60;99.90;;;;;;5047414;28;20176;-92
2021/12/31 00:37:40;;;;;;;1.50;1.20;;;;;;;;;;5049923;28;20179;-92
2021/12/31 00:40:12;;;;;;;1.57;1.20;;;12.90;99.90;;;;;;5047159;28;20624;-92
2021/12/31 00:42:40;;;;;;;1.87;1.00;;;12.90;99.90;;;;;;5038573;28;20281;-92
2021/12/31 00:45:09;;;;;;;1.23;1.00;;;12.90;99.90;;;;;;5056465;28;20697;-92
2021/12/31 00:47:50;;;;;;;2.60;1.10;;;13.00;99.90;;;;;;5039373;28;20194;-92
2021/12/31 00:50:16;;;;;;;0.90;0.90;;;;;;;;;;5055465;28;20179;-93
2021/12/31 00:52:50;;;;;;;4.73;1.20;;;13.00;99.90;;;;;;5055725;28;20179;-93
2021/12/31 00:55:17;;;;;;;0.90;0.90;;;;;;;;;;5056487;28;20183;-93
2021/12/31 00:57:44;;;;;;;0.90;0.90;;;13.30;99.90;;;;;;5055169;28;20203;-93
2021/12/31 01:00:13;;;;;;;1.10;1.00;;;13.30;99.90;;;;;;5054786;28;20176;-93
2021/12/31 01:02:39;;;;;;;1.03;1.00;;;;;;;;;;5054705;28;20184;-93
2021/12/31 01:05:06;;;;;;;0.80;0.80;;;13.40;99.90;;;;;;5054546;28;20689;-94
2021/12/31 01:07:32;;;;;;;1.20;1.10;;;;;;;;;;5038291;28;20187;-93
2021/12/31 01:10:01;;;;;;;1.10;1.00;;;13.30;99.90;;;;;;5055161;28;20206;-93
2021/12/31 01:12:27;;;;;;;1.30;1.20;;;;;;;;;;5054715;28;20264;-93
2021/12/31 01:14:57;;;;;;;1.83;1.20;;;;;;;;;;5054963;28;20184;-93
2021/12/31 01:17:45;;;;;;;1.03;0.87;;;13.20;99.90;;;;;;5055860;28;20169;-93
2021/12/31 01:20:12;;;;;;;2.90;1.10;;;13.00;99.90;;;;;;5055725;28;20179;-93
2021/12/31 01:22:39;;;;;;;0.77;0.77;;;;;;;;;;5055191;28;20178;-95
2021/12/31 01:25:14;;;;;;;2.93;1.23;;;12.90;99.90;;;;;;5054666;28;20211;-94
2021/12/31 01:27:40;;;;;;;4.07;1.30;;;;;;;;;;5055527;28;20209;-93
2021/12/31 01:30:44;;;;;;;1.10;1.10;;;12.80;99.90;;;;;;5054965;28;20225;-94
2021/12/31 01:33:10;;;;;;;2.00;1.20;;;;;;;;;;5055241;28;20667;-94
2021/12/31 01:35:46;;;;;;;2.93;1.53;;;12.30;99.90;;;;;;5054755;28;20175;-93
2021/12/31 01:38:12;;;;;;;1.50;1.40;;;;;;;;;;5055526;28;20183;-93
2021/12/31 01:40:38;;;;;;;1.40;1.30;;;;;;;;;;5054235;28;20175;-93
2021/12/31 01:43:05;;;;;;;2.87;1.20;;;;;;;;;;5054501;28;20234;-93
2021/12/31 01:45:33;;;;;;;1.80;1.70;;;;;;;;;;5054163;28;20195;-93
2021/12/31 01:50:49;;;;;;;1.47;1.37;;;11.60;99.90;;;;;;5055415;28;20290;-92
2021/12/31 01:53:16;;;;;;;1.60;1.50;;;11.50;99.90;;;;;;5053779;28;20198;-93
2021/12/31 01:55:43;;;;;;;1.53;1.43;;;11.60;99.90;;;;;;5054201;28;20642;-92
2021/12/31 01:58:10;;;;;;;1.63;1.50;;;11.60;99.90;;;;;;5054270;28;20183;-92
2021/12/31 02:00:49;;;;;;;1.40;1.30;;;11.70;99.90;;;;;;5054160;28;20582;-90
2021/12/31 02:03:18;;;;;;;1.30;1.20;;;11.70;99.90;;;;;;5053879;28;20217;-92
2021/12/31 02:05:44;;;;;;;1.50;1.40;;;;;;;;;;5054222;28;20179;-93
2021/12/31 02:08:10;;;;;;;1.30;1.20;;;;;;;;;;5054266;28;20175;-92
2021/12/31 02:10:36;;;;;;;1.83;1.50;;;11.80;99.90;;;;;;5057032;28;20198;-92
2021/12/31 02:13:02;;;;;;;1.70;1.60;;;;;;;;;;5057359;28;20685;-93
2021/12/31 02:15:30;;;;;;;1.37;1.20;;;;;;;;;;5056965;28;20189;-92
2021/12/31 02:18:08;;;;;;;1.50;1.40;;;12.20;99.90;;;;;;5057233;28;20174;-92
2021/12/31 02:20:42;;;;;;;1.63;1.40;;;12.00;99.90;;;;;;5057326;28;20210;-91
2021/12/31 02:23:20;;;;;;;1.97;1.67;;;12.10;99.90;;;;;;5057364;28;20177;-91
2021/12/31 02:25:46;;;;;;;1.60;1.50;;;;;;;;;;5055470;28;20182;-92
2021/12/31 02:28:21;;;;;;;3.27;1.50;;;12.30;99.90;;;;;;5056653;28;20175;-92
2021/12/31 02:30:48;;;;;;;1.67;1.57;;;;;;;;;;5056535;28;20261;-91
2021/12/31 02:33:14;;;;;;;1.60;1.50;;;;;;;;;;5056484;28;20257;-92
2021/12/31 02:35:40;;;;;;;1.97;1.70;;;;;;;;;;5056546;28;20205;-92
2021/12/31 02:38:13;;;;;;;2.67;1.53;;;12.10;99.90;;;;;;5056800;28;20171;-92
2021/12/31 02:40:39;;;;;;;1.60;1.50;;;;;;;;;;5056350;28;20653;-93
2021/12/31 02:43:06;;;;;;;1.70;1.60;;;;;;;;;;5056199;28;20194;-93
2021/12/31 02:45:36;;;;;;;1.77;1.53;;;;;;;;;;5056080;28;20256;-92
2021/12/31 02:48:04;;;;;;;1.83;1.60;;;12.80;99.90;;;;;;5056351;28;20176;-91
2021/12/31 02:50:38;;;;;;;2.43;1.50;;;12.90;99.90;;;;;;5056271;28;20178;-93
2021/12/31 02:53:10;;;;;;;1.73;1.33;;;13.00;99.90;;;;;;5056454;28;20240;-92
2021/12/31 02:55:44;;;;;;;1.63;1.50;;;13.10;99.90;;;;;;5055901;28;20201;-92
2021/12/31 02:58:10;;;;;;;1.70;1.60;;;13.10;99.90;;;;;;5056051;28;20171;-92
2021/12/31 03:00:40;;;;;;;1.60;1.50;;;13.10;99.90;;;;;;5056312;28;20178;-92
2021/12/31 03:03:07;;;;;;;3.53;1.80;;;12.80;99.90;;;;;;5056161;28;20179;-92
2021/12/31 03:05:35;;;;;;;1.90;1.77;;;12.50;99.90;;;;;;5055765;28;20214;-91
2021/12/31 03:08:08;;;;;;;2.73;1.73;;;12.20;99.90;;;;;;5056638;28;20179;-92
2021/12/31 03:10:35;;;;;;;2.20;2.00;;;;;;;;;;5056681;28;20740;-91
2021/12/31 03:13:02;;;;;;;1.80;1.67;;;11.80;99.90;;;;;;5056222;28;20247;-91
2021/12/31 03:15:28;;;;;;;1.90;1.77;;;;;;;;;;5056183;28;20189;-91
2021/12/31 03:18:14;;;;;;;1.60;1.50;;;11.50;99.90;;;;;;5055922;28;20538;-92
2021/12/31 03:20:57;;;;;;;1.87;1.70;;;;;;;;;;5055992;28;20170;-92
2021/12/31 03:23:23;;;;;;;1.90;1.67;;;;;;;;;;5056064;28;20208;-92
2021/12/31 03:25:51;;;;;;;3.20;1.60;;;11.30;99.90;;;;;;5055625;28;20212;-92
2021/12/31 03:28:17;;;;;;;2.57;1.60;;;;;;;;;;5055874;28;20174;-92
2021/12/31 03:30:44;;;;;;;2.73;1.90;;;12.10;99.90;;;;;;5055911;28;20660;-91
2021/12/31 03:33:10;;;;;;;1.80;1.70;;;;;;;;;;5055572;28;20633;-92
2021/12/31 03:35:36;;;;;;;2.30;1.60;;;;;;;;;;5055072;28;20189;-92
2021/12/31 03:38:03;;;;;;;1.70;1.60;;;;;;;;;;5055620;28;20179;-92
2021/12/31 03:40:29;;;;;;;1.73;1.50;;;12.10;99.90;;;;;;5055927;28;20236;-91
2021/12/31 03:42:55;;;;;;;1.70;1.60;;;12.20;99.90;;;;;;5055612;28;20198;-92
2021/12/31 03:45:21;;;;;;;2.43;1.47;;;;;;;;;;5055816;28;20229;-92
2021/12/31 03:47:47;;;;;;;1.50;1.33;;;;;;;;;;5055710;28;20654;-92
2021/12/31 03:50:23;;;;;;;3.37;1.50;;;12.10;99.90;;;;;;5055424;28;20265;-93
2021/12/31 03:52:49;;;;;;;1.20;1.10;;;;;;;;;;5055629;28;20178;-93
2021/12/31 03:55:15;;;;;;;1.10;1.10;;;;;;;;;;5055540;28;20726;-92
2021/12/31 03:57:41;;;;;;;1.43;1.30;;;;;;;;;;5056068;28;20531;-93
2021/12/31 04:00:11;;;;;;;1.50;1.40;;;12.00;99.90;;;;;;5039313;28;20191;-92
2021/12/31 04:02:38;;;;;;;1.77;1.67;;;;;;;;;;5055269;28;20197;-94
2021/12/31 04:05:04;;;;;;;1.50;1.40;;;;;;;;;;5055307;28;20356;-93
2021/12/31 04:07:30;;;;;;;1.60;1.47;;;;;;;;;;5055696;28;20210;-90
2021/12/31 04:09:58;;;;;;;1.50;1.40;;;12.10;99.90;;;;;;5055504;28;20178;-93
2021/12/31 04:12:24;;;;;;;1.73;1.60;;;;;;;;;;5055427;28;20180;-91
2021/12/31 04:14:51;;;;;;;1.70;1.60;;;12.30;99.90;;;;;;5054963;28;20187;-91
2021/12/31 04:17:17;;;;;;;4.20;1.63;;;;;;;;;;5072885;28;20178;-91
2021/12/31 04:19:46;;;;;;;2.33;1.60;;;;;;;;;;5055538;28;20180;-92
2021/12/31 04:22:13;;;;;;;1.73;1.63;;;;;;;;;;5055040;28;20210;-91
2021/12/31 04:27:11;;;;;;;1.77;1.67;;;;;;;;;;5072866;28;20179;-90
2021/12/31 04:29:40;;;;;;;1.60;1.50;;;12.20;99.90;;;;;;5055440;28;20184;-91
2021/12/31 04:32:06;;;;;;;1.60;1.50;;;12.10;99.90;;;;;;5055462;28;20185;-91
2021/12/31 04:34:33;;;;;;;1.70;1.60;;;;;;;;;;5054908;28;20179;-91
2021/12/31 04:37:17;;;;;;;1.97;1.50;;;12.20;99.90;;;;;;5055204;28;20236;-92
2021/12/31 04:39:43;;;;;;;1.43;1.33;;;;;;;;;;5055301;28;20670;-92
2021/12/31 04:42:10;;;;;;;1.40;1.30;;;;;;;;;;5055190;28;20174;-93
2021/12/31 04:44:36;;;;;;;1.47;1.37;;;;;;;;;;5055658;28;20208;-93
2021/12/31 04:47:02;;;;;;;1.20;1.10;;;;;;;;;;5054972;28;20186;-94
2021/12/31 04:49:28;;;;;;;1.33;1.23;;;;;;;;;;5058075;28;20183;-93
2021/12/31 04:51:54;;;;;;;1.30;1.20;;;;;;;;;;5058148;28;20638;-94
2021/12/31 04:54:20;;;;;;;1.07;1.07;;;;;;;;;;5057846;28;20223;-92
2021/12/31 04:56:47;;;;;;;1.43;1.10;;;13.10;99.90;;;;;;5058946;28;20177;-94
2021/12/31 04:59:13;;;;;;;1.50;1.40;;;;;;;;;;5058781;28;20269;-93
2021/12/31 05:01:48;;;;;;;1.40;1.10;;;13.20;99.90;;;;;;5058629;28;20180;-93
2021/12/31 05:04:15;;;;;;;1.77;1.40;;;;;;;;;;5058296;28;20335;-93
2021/12/31 05:06:54;;;;;;;1.40;1.30;;;13.40;99.90;;;;;;5058283;28;20184;-92
2021/12/31 05:09:20;;;;;;;2.20;1.50;;;;;;;;;;5058065;28;20171;-92
2021/12/31 05:11:46;;;;;;;1.30;1.20;;;13.30;99.90;;;;;;5058513;28;20171;-92
2021/12/31 05:14:12;;;;;;;2.40;1.30;;;;;;;;;;5058213;28;20710;-93
2021/12/31 05:16:38;;;;;;;1.50;1.40;;;;;;;;;;5058229;28;20175;-93
2021/12/31 05:19:05;;;;;;;2.37;1.30;;;13.30;99.90;;;;;;5057966;28;20743;-93
2021/12/31 05:21:31;;;;;;;1.77;1.10;;;13.30;99.90;;;;;;5058253;28;20179;-91
2021/12/31 05:24:00;;;;;;;1.40;1.30;;;13.40;99.90;;;;;;5057767;28;20297;-91
2021/12/31 05:26:26;;;;;;;2.63;1.50;;;;;;;;;;5057702;28;20171;-92
2021/12/31 05:28:55;;;;;;;1.43;1.27;;;13.40;99.90;;;;;;5057917;28;20175;-91
2021/12/31 05:31:22;;;;;;;1.33;1.23;;;13.50;99.90;;;;;;5054472;28;20547;-90
2021/12/31 05:33:47;;;;;;;1.87;1.40;;;13.50;99.90;;;;;;5057469;28;20179;-91
2021/12/31 05:36:16;;;;;;;1.20;1.10;;;13.40;99.90;;;;;;5053707;28;20536;-91
2021/12/31 05:38:42;;;;;;;1.47;1.10;;;;;;;;;;5054380;28;20172;-93
2021/12/31 05:41:13;;;;;;;1.03;1.00;;;13.50;99.90;;;;;;5054555;28;20244;-92
2021/12/31 05:43:39;;;;;;;1.27;1.10;;;;;;;;;;5053856;28;20236;-91
2021/12/31 05:46:05;;;;;;;1.17;1.07;;;;;;;;;;5053984;28;20195;-93
2021/12/31 05:48:34;;;;;;;0.90;0.90;;;13.50;99.90;;;;;;5054367;28;20226;-93
2021/12/31 05:51:00;;;;;;;1.60;1.30;;;;;;;;;;5054329;28;20238;-93
2021/12/31 05:53:27;;;;;;;2.07;1.63;;;;;;;;;;5054227;28;20190;-93
2021/12/31 05:55:52;;;;;;;1.83;1.73;;;13.50;99.90;;;;;;5053903;28;20179;-93
2021/12/31 05:58:18;;;;;;;2.20;1.77;;;13.50;99.90;;;;;;5053774;28;20204;-93
2021/12/31 06:00:44;;;;;;;1.63;1.27;;;;;;;;;;5053889;28;20230;-92
2021/12/31 06:03:10;;;;;;;2.50;1.77;;;;;;;;;;5053849;28;20230;-93
2021/12/31 06:05:47;;;;;;;1.30;1.30;;;13.30;99.90;;;;;;5053262;28;20211;-92
2021/12/31 06:08:13;;;;;;;2.03;1.47;;;;;;;;;;5053947;28;20282;-93
2021/12/31 06:10:41;;;;;;;1.17;1.07;;;13.30;99.90;;;;;;5053868;28;20218;-94
2021/12/31 06:13:10;;;;;;;0.97;0.97;;;13.00;99.90;;;;;;5053520;28;20203;-93
2021/12/31 06:15:36;;;;;;;1.37;1.20;;;;;;;;;;5053550;28;20185;-92
2021/12/31 06:18:02;;;;;;;1.70;1.60;;;;;;;;;;5053990;28;20179;-92
2021/12/31 06:20:40;;;;;;;1.50;1.40;;;13.30;99.90;;;;;;5053832;28;20214;-94
2021/12/31 06:23:06;;;;;;;1.43;1.33;;;;;;;;;;5053336;28;20176;-91
2021/12/31 06:25:33;;;;;;;1.50;1.40;;;;;;;;;;5053062;28;20210;-92
2021/12/31 06:28:00;;;;;;;1.63;1.53;;;;;;;;;;5053410;28;20184;-91
2021/12/31 06:30:27;;;;;;;1.30;1.20;;;;;;;;;;5053423;28;20187;-92
2021/12/31 06:33:00;;;;;;;1.37;1.30;;;13.40;99.90;;;;;;5053454;28;20179;-92
2021/12/31 06:35:26;;;;;;;1.93;1.47;;;;;;;;;;5053374;28;20247;-92
2021/12/31 06:37:54;;;;;;;1.10;1.10;;;13.40;99.90;;;;;;5053334;28;20173;-92
2021/12/31 06:40:21;;;;;;;1.40;1.20;;;;;;;;;;5052763;28;20214;-92
2021/12/31 06:42:47;;;;;;;1.20;1.10;;;;;;;;;;5052602;28;20253;-91
2021/12/31 06:45:13;;;;;;;1.20;1.10;;;;;;;;;;5052897;28;20210;-91
2021/12/31 06:47:39;;;;;;;1.30;1.20;;;;;;;;;;5053190;28;20196;-91
2021/12/31 06:50:07;;;;;;;1.27;1.10;;;13.40;99.90;;;;;;5053007;28;20538;-94
2021/12/31 06:52:40;;;;;;;1.23;1.13;;;13.50;99.90;;;;;;5053016;28;20170;-92
2021/12/31 06:55:13;;;;;;;1.50;1.40;;;13.50;99.90;;;;;;5052442;28;20178;-92
2021/12/31 06:57:39;;;;;;;1.47;1.37;;;;;;;;;;5052879;28;20624;-91
2021/12/31 07:00:06;;;;;;;1.57;1.47;;;13.40;99.90;;;;;;5053162;28;20193;-92
2021/12/31 07:02:34;;;;;;;1.50;1.40;;;13.70;99.90;;;;;;5052803;28;20199;-92
2021/12/31 07:05:03;;;;;;;1.80;1.60;;;;;;;;;;5053851;28;20197;-92
2021/12/31 07:07:29;;;;;;;1.50;1.40;;;13.50;99.90;;;;;;5052678;28;20183;-91
2021/12/31 07:09:55;;;;;;;2.53;1.50;;;;;;;;;;5052234;28;20186;-92
2021/12/31 07:12:21;;;;;;;1.57;1.37;;;;;;;;;;5052160;28;20593;-93
2021/12/31 07:14:47;;;;;;;2.13;1.20;;;;;;;;;;5052438;28;20624;-92
2021/12/31 07:17:34;;;;;;;1.97;1.50;;;13.70;99.90;;;;;;5052497;28;20673;-91
2021/12/31 07:20:00;;;;;;;1.60;1.33;;;;;;;;;;5052557;28;20226;-91
2021/12/31 07:22:29;;;;;;;2.67;1.30;;;13.70;99.90;;;;;;5052307;28;20172;-91
2021/12/31 07:24:55;;;;;;;1.23;1.13;;;;;;;;;;5052420;28;20213;-90
2021/12/31 07:27:22;;;;;;;0.90;0.90;;;13.60;99.90;;;;;;5052608;28;20241;-91
2021/12/31 07:29:48;;;;;;;1.57;1.27;;;;;;;;;;5052791;28;20177;-91
2021/12/31 07:32:14;;;;;;;1.67;1.57;;;;;;;;;;5052172;28;20187;-91
2021/12/31 07:34:41;;;;;;;1.50;1.40;;;13.30;99.90;;;;;;5052198;28;20191;-91
2021/12/31 07:37:07;;;;;;;1.30;1.20;;;;;;;;;;5052465;28;20632;-92
2021/12/31 07:39:35;;;;;;;2.40;1.50;;;;;;;;;;5052468;28;20180;-92
2021/12/31 07:42:01;;;;;;;1.93;1.50;;;;;;;;;;5053108;28;20177;-91
2021/12/31 07:44:27;;;;;;;1.63;1.30;;;13.30;99.90;;;;;;5052036;28;20212;-92
2021/12/31 07:46:53;;;;;;;1.73;1.30;;;;;;;;;;5052451;28;20192;-91
2021/12/31 07:49:20;;;;;;;1.20;1.10;;;13.30;99.90;;;;;;5052268;28;20270;-93
2021/12/31 07:51:46;;;;;;;1.57;1.43;;;;;;;;;;5052268;28;20192;-91
2021/12/31 07:54:12;;;;;;;1.40;1.30;;;13.40;99.90;;;;;;5052073;28;20176;-92
2021/12/31 07:56:37;;;;;;;1.13;1.03;;;13.80;99.90;;;;;;5052318;28;20175;-91
2021/12/31 07:59:03;;;;;;;1.60;1.07;;;;;;;;;;5052228;28;20293;-92
2021/12/31 08:01:29;;;;;;;1.30;1.20;;;;;;;;;;5052457;28;20183;-92
2021/12/31 08:03:56;;;;;;;1.67;1.20;;;;;;;;;;5053150;28;20199;-92
2021/12/31 08:06:22;;;;;;;1.27;1.17;;;;;;;;;;5052456;28;20647;-92
2021/12/31 08:08:48;;;;;;;1.43;0.97;;;;;;;;;;5052575;28;20190;-92
2021/12/31 08:11:14;;;;;;;1.10;1.10;;;;;;;;;;5052540;28;20275;-93
2021/12/31 08:13:50;;;;;;;2.23;1.10;;;13.50;99.90;;;;;;5052352;28;20183;-92
2021/12/31 08:16:16;;;;;;;1.77;1.50;;;;;;;;;;5054395;28;20226;-91
2021/12/31 08:18:45;;;;;;;1.40;1.30;;;13.70;99.90;;;;;;5051946;28;20234;-92
2021/12/31 08:21:14;;;;;;;1.43;1.00;;;13.90;99.90;;;;;;5052865;28;20173;-93
2021/12/31 08:24:11;;;;;;;1.20;1.10;;;14.10;99.90;;;;;;5054228;28;20265;-93
2021/12/31 08:26:38;;;;;;;1.10;1.00;;;;;;;;;;5056050;28;20270;-93
2021/12/31 08:29:12;;;;;;;1.53;1.17;;;14.70;99.90;;;;;;5056228;28;20209;-93
2021/12/31 08:31:39;;;;;;;1.00;0.90;;;;;;;;;;5058529;28;20175;-93
2021/12/31 08:34:07;;;;;;;0.97;0.90;;;15.30;99.90;;;;;;5078113;28;20262;-92
2021/12/31 08:36:39;;;;;;;1.00;0.90;;;15.60;99.90;;;;;;5060024;28;20178;-92
2021/12/31 08:39:10;;;;;;;2.37;1.10;;;16.00;99.90;;;;;;5061541;28;20183;-92
2021/12/31 08:41:38;;;;;;;0.93;0.93;;;16.50;99.90;;;;;;5052118;28;20179;-92
2021/12/31 08:44:05;;;;;;;0.87;0.87;;;17.10;99.90;;;;;;5055438;28;20302;-92
2021/12/31 08:46:31;;;;;;;2.37;1.10;;;17.80;99.90;;;;;;5054241;28;20191;-92
2021/12/31 08:48:57;;;;;;;0.90;0.90;;;17.80;99.90;;;;;;5054311;28;20181;-92
2021/12/31 08:51:24;;;;;;;1.27;0.90;;;19.10;99.90;;;;;;5053868;28;20541;-92
2021/12/31 08:53:52;;;;;;;3.70;0.80;;;21.40;99.90;;;;;;5054317;28;20694;-92
2021/12/31 08:56:18;;;;;;;1.43;1.20;;;;;;;;;;5052791;28;20171;-91
2021/12/31 08:58:44;;;;;;;1.47;1.10;;;;;;;;;;5053757;28;20179;-92
2021/12/31 09:01:13;;;;;;;1.37;0.90;;;20.60;99.90;;;;;;5053602;28;20176;-91
2021/12/31 09:03:39;;;;;;;1.00;0.90;;;20.60;99.90;;;;;;5054780;28;20182;-91
2021/12/31 09:06:11;;;;;;;2.28;1.20;;;21.50;99.90;;;;;;5054783;28;20649;-91
2021/12/31 09:08:37;;;;;;;1.95;1.17;;;22.80;99.90;;;;;;5054478;28;20635;-93
2021/12/31 09:11:03;;;;;;;3.33;2.60;;;;;;;;;;5055034;28;20178;-93
2021/12/31 09:13:32;;;;;;;4.72;3.00;;;26.50;99.90;;;;;;5088587;28;20176;-93
2021/12/31 09:15:58;;;;;;;2.80;2.40;;;;;;;;;;5054827;28;20332;-94
2021/12/31 09:18:26;;;;;;;1.17;1.15;;;29.90;94.80;;;;;;5088105;28;20181;-94
2021/12/31 09:20:53;;;;;;;3.25;1.00;;;;;;;;;;5054880;28;20176;-94
2021/12/31 09:23:26;;;;;;;1.08;0.68;;;33.30;84.40;;;;;;5087902;28;20559;-94
2021/12/31 09:25:52;;;;;;;0.73;0.73;;;33.20;84.70;;;;;;5054675;28;20290;-95
2021/12/31 09:28:27;;;;;;;1.02;0.93;;;34.10;82.00;;;;;;5055619;28;20180;-94
2021/12/31 09:30:53;;;;;;;1.17;0.80;;;;;;;;;;5038225;28;20182;-94
2021/12/31 09:33:35;;;;;;;2.50;1.02;;;35.30;75.20;;;;;;5088172;28;20615;-94
2021/12/31 09:36:01;;;;;;;1.15;0.70;;;;;;;;;;5054765;28;20178;-94
2021/12/31 09:38:32;;;;;;;0.60;0.60;;;35.10;71.60;;;;;;5088187;28;20246;-94
2021/12/31 09:40:58;;;;;;;1.27;0.70;;;;;;;;;;5054453;28;20176;-93
2021/12/31 09:43:25;;;;;;;0.73;0.73;;;34.40;72.70;;;;;;5088759;28;20172;-93
2021/12/31 09:45:57;;;;;;;2.33;1.02;;;35.10;71.70;;;;;;5053743;28;20214;-94
2021/12/31 09:48:24;;;;;;;1.05;0.63;;;35.80;69.60;;;;;;5052891;28;20181;-91
2021/12/31 09:50:56;;;;;;;0.80;0.80;;;36.70;65.20;;;;;;5051662;28;20166;-91
2021/12/31 09:53:26;;;;;;;1.15;0.68;;;37.70;61.40;;;;;;5051228;28;20635;-91
2021/12/31 09:55:53;;;;;;;0.70;0.70;;;38.20;59.60;;;;;;5036890;28;20571;-91
2021/12/31 09:58:24;;;;;;;1.30;0.93;;;38.40;58.20;;;;;;5037147;28;20182;-91
2021/12/31 10:00:53;;;;;;;0.80;0.80;;;38.40;59.00;;;;;;5037005;28;20241;-90
2021/12/31 10:03:28;;;;;;;1.00;0.73;;;38.80;57.90;;;;;;5037531;28;20539;-91
2021/12/31 10:06:12;;;;;;;0.80;0.70;;;39.30;55.40;;;;;;5035943;28;20650;-92
2021/12/31 10:08:45;;;;;;;0.60;0.60;;;39.60;55.90;;;;;;5042885;28;20190;-91
2021/12/31 10:11:18;;;;;;;1.65;0.77;;;40.00;55.00;;;;;;5052381;28;20205;-95
2021/12/31 10:13:56;;;;;;;1.45;0.85;;;40.30;52.70;;;;;;5051993;28;20174;-93
2021/12/31 10:16:40;;;;;;;0.90;0.90;;;40.10;52.30;;;;;;5051945;28;20171;-92
2021/12/31 10:19:18;;;;;;;1.00;0.90;;;38.10;50.80;;;;;;5051449;28;20198;-91
2021/12/31 10:21:48;;;;;;;1.02;0.88;;;39.90;52.00;;;;;;5050273;28;20209;-91
2021/12/31 10:24:36;;;;;;;0.73;0.73;;;39.70;51.70;;;;;;5051443;28;20175;-90
2021/12/31 10:27:14;;;;;;;0.90;0.90;;;38.60;53.10;;;;;;5050820;28;20179;-91
2021/12/31 10:30:00;;;;;;;0.98;0.90;;;37.90;53.70;;;;;;5053224;28;20181;-92
2021/12/31 10:32:28;;;;;;;1.33;0.80;;;37.90;54.20;;;;;;5053211;28;20256;-92
2021/12/31 10:35:10;;;;;;;0.80;0.80;;;37.50;55.40;;;;;;5051534;28;20280;-91
2021/12/31 10:37:56;;;;;;;1.05;0.80;;;37.90;53.90;;;;;;5051540;28;20185;-91
2021/12/31 10:40:29;;;;;;;1.10;1.00;;;36.70;55.10;;;;;;5050872;28;20654;-90
2021/12/31 10:43:18;;;;;;;0.85;0.85;;;35.30;57.10;;;;;;5052727;28;20666;-91
2021/12/31 10:45:59;;;;;;;1.25;0.90;;;33.90;59.90;;;;;;5051774;28;20190;-91
2021/12/31 10:48:44;;;;;;;1.73;1.33;;;33.50;59.40;;;;;;5053018;28;20193;-91
2021/12/31 10:51:12;;;;;;;1.52;0.80;;;32.80;61.00;;;;;;5053024;28;20229;-92
2021/12/31 10:53:38;;;;;;;0.70;0.70;;;;;;;;;;5052793;28;20267;-92
2021/12/31 10:56:14;;;;;;;0.77;0.75;;;30.40;64.40;;;;;;5052418;28;20175;-92
2021/12/31 10:58:45;;;;;;;0.80;0.80;;;30.10;66.50;;;;;;5052460;28;20175;-92
2021/12/31 11:01:14;;;;;;;0.70;0.50;;;30.10;67.20;;;;;;5052512;28;20690;-92
2021/12/31 11:03:41;;;;;;;0.98;0.90;;;30.90;66.90;;;;;;5052326;28;20214;-93
2021/12/31 11:06:10;;;;;;;0.85;0.85;;;32.70;64.50;;;;;;5052406;28;20634;-93
2021/12/31 11:08:36;;;;;;;1.48;0.85;;;34.50;60.00;;;;;;5051815;28;20492;-93
2021/12/31 11:11:04;;;;;;;2.25;1.10;;;35.20;59.20;;;;;;5052215;28;20171;-92
2021/12/31 11:13:31;;;;;;;0.85;0.85;;;34.60;58.70;;;;;;5052069;28;20179;-92
2021/12/31 11:16:00;;;;;;;3.30;0.82;;;30.70;63.70;;;;;;5052070;28;20206;-92
2021/12/31 11:18:26;;;;;;;1.40;0.95;;;;;;;;;;5052361;28;20180;-92
2021/12/31 11:21:03;;;;;;;2.33;1.13;;;26.90;72.70;;;;;;5051993;28;20171;-92
2021/12/31 11:23:30;;;;;;;1.98;1.00;;;26.80;73.30;;;;;;5066326;22;20231;-63
2021/12/31 11:26:01;;;;;;;1.02;0.93;;;26.40;73.80;;;;;;5030624;28;20176;-62
2021/12/31 11:28:32;;;;;;;1.15;1.00;;;25.40;81.00;;;;;;5032148;28;20183;-61
2021/12/31 11:31:20;;;;;;;1.45;1.20;;;25.30;81.40;;;;;;5043420;28;20180;-62
2021/12/31 11:33:57;;;;;;;1.25;1.15;;;26.50;80.90;;;;;;5029045;28;20275;-63
2021/12/31 11:36:51;;;;;;;1.30;1.20;;;27.40;76.80;;;;;;5031690;28;20191;-61
2021/12/31 11:39:24;;;;;;;1.40;1.00;;;27.50;76.10;;;;;;5031682;28;20168;-61
2021/12/31 11:41:56;;;;;;;1.30;1.20;;;27.80;74.70;;;;;;5031299;28;20183;-61
2021/12/31 11:44:24;;;;;;;1.48;1.10;;;27.50;75.30;;;;;;5031249;28;20338;-59
2021/12/31 11:46:50;;;;;;;1.73;1.30;;;26.80;76.00;;;;;;5031547;28;20230;-61
2021/12/31 11:49:26;;;;;;;1.77;1.20;;;26.40;77.40;;;;;;5031633;28;20287;-64
2021/12/31 11:52:23;;;;;;;1.23;1.02;;;26.80;79.40;;;;;;5031327;28;20202;-61
2021/12/31 11:55:16;;;;;;;1.00;1.00;;;27.50;76.10;;;;;;5024453;28;20227;-60
2021/12/31 11:57:42;;;;;;;1.00;1.00;;;27.30;76.80;;;;;;5033856;28;20187;-63
2021/12/31 12:00:26;;;;;;;2.55;1.10;;;27.50;76.60;;;;;;5035371;28;20636;-62
2021/12/31 12:02:52;;;;;;;1.45;1.10;;;26.80;76.80;;;;;;5035451;28;20192;-62
2021/12/31 12:05:20;;;;;;;0.90;0.90;;;26.20;79.00;;;;;;5035220;28;20175;-66
2021/12/31 12:07:47;;;;;;;1.13;0.90;;;25.90;79.20;;;;;;5035347;28;20168;-60
2021/12/31 12:10:17;;;;;;;1.23;0.80;;;25.10;80.50;;;;;;5035361;28;20168;-60
2021/12/31 12:12:49;;;;;;;0.90;0.90;;;23.50;84.60;;;;;;5035075;28;20322;-60
2021/12/31 12:15:15;;;;;;;1.38;1.05;;;23.60;85.10;;;;;;5034845;28;20711;-60
2021/12/31 12:17:44;;;;;;;1.95;1.00;;;23.10;85.90;;;;;;5034961;28;20176;-62
2021/12/31 12:20:13;;;;;;;1.70;0.95;;;22.40;88.40;;;;;;5035214;28;20172;-59
2021/12/31 12:22:53;;;;;;;1.20;1.10;;;20.60;91.60;;;;;;5034896;28;20164;-60
2021/12/31 12:25:28;;;;;;;1.27;1.02;;;21.00;92.10;;;;;;5034924;28;20638;-62
2021/12/31 12:28:02;;;;;;;1.48;1.00;;;20.70;93.70;;;;;;5034859;28;20264;-59
2021/12/31 12:30:28;;;;;;;1.27;1.17;;;20.50;94.70;;;;;;5035180;28;20174;-59
2021/12/31 12:33:07;;;;;;;1.65;1.20;;;20.30;95.30;;;;;;5034277;28;20227;-62
2021/12/31 12:35:36;;;;;;;2.28;1.30;;;20.10;96.20;;;;;;5034448;28;20244;-62
2021/12/31 12:38:19;;;;;;;1.48;1.10;;;19.70;96.90;;;;;;5034650;28;20175;-60
2021/12/31 12:41:08;;;;;;;1.60;1.20;;;19.20;98.60;;;;;;5034952;28;20208;-60
2021/12/31 12:43:36;;;;;;;1.57;1.30;;;18.90;99.90;;;;;;5034499;28;20286;-61
2021/12/31 12:46:05;;;;;;;1.40;1.30;;;18.90;99.90;;;;;;5034333;28;20668;-62
2021/12/31 12:48:37;;;;;;;1.40;1.30;;;19.50;99.90;;;;;;5034450;28;20172;-63
2021/12/31 12:51:05;;;;;;;1.85;1.05;;;19.70;99.90;;;;;;5016926;28;20177;-60
2021/12/31 12:53:33;;;;;;;2.78;1.60;;;19.20;99.90;;;;;;5034386;28;20656;-63
2021/12/31 12:56:16;;;;;;;1.57;1.47;;;18.90;99.90;;;;;;5034030;28;20207;-63
2021/12/31 12:58:51;;;;;;;2.10;1.60;;;18.70;99.90;;;;;;5034482;28;20529;-59
2021/12/31 13:01:17;;;;;;;2.00;1.63;;;19.00;99.90;;;;;;5034342;28;20509;-62
2021/12/31 13:03:54;;;;;;;2.17;1.60;;;19.10;99.90;;;;;;5034287;28;20250;-62
2021/12/31 13:06:22;;;;;;;2.43;1.50;;;19.00;99.90;;;;;;5034046;28;20190;-60
2021/12/31 13:08:48;;;;;;;1.87;1.43;;;18.80;99.90;;;;;;5033443;28;20240;-60
2021/12/31 13:11:16;;;;;;;2.97;1.50;;;18.80;99.90;;;;;;5034236;28;20678;-61
2021/12/31 13:13:42;;;;;;;1.53;1.43;;;;;;;;;;5034090;28;20600;-62
2021/12/31 13:16:08;;;;;;;2.57;1.80;;;18.50;99.90;;;;;;5033614;28;20174;-63
2021/12/31 13:18:36;;;;;;;1.83;1.50;;;18.20;99.90;;;;;;5034160;28;20544;-63
2021/12/31 13:21:05;;;;;;;2.37;1.13;;;17.90;99.90;;;;;;5033869;28;20214;-64
2021/12/31 13:23:31;;;;;;;1.53;1.43;;;17.70;99.90;;;;;;5033885;28;20211;-64
2021/12/31 13:25:57;;;;;;;1.40;1.30;;;17.70;99.90;;;;;;5033794;28;20256;-62
2021/12/31 13:28:27;;;;;;;1.57;1.47;;;17.80;99.90;;;;;;5033877;28;20617;-60
2021/12/31 13:31:10;;;;;;;1.47;1.37;;;17.80;99.90;;;;;;5033721;28;20176;-64
2021/12/31 13:33:38;;;;;;;1.63;1.20;;;17.80;99.90;;;;;;5033773;28;20192;-62
2021/12/31 13:36:22;;;;;;;1.50;1.40;;;17.70;99.90;;;;;;5033380;28;20170;-63
2021/12/31 13:39:03;;;;;;;1.30;1.20;;;17.70;99.90;;;;;;5016270;28;20556;-64
2021/12/31 13:41:31;;;;;;;1.23;1.20;;;17.70;99.90;;;;;;5033413;28;20260;-63
2021/12/31 13:44:00;;;;;;;2.53;1.20;;;17.90;99.90;;;;;;5033143;28;20196;-57
2021/12/31 13:46:37;;;;;;;1.50;1.40;;;17.80;99.90;;;;;;5033521;28;20169;-64